createdAt,value
2017-11-13T00:00:51.100Z,97027.26
2017-11-13T00:01:54.806Z,97014.33
2017-11-13T00:02:58.872Z,97025.97
2017-11-13T00:04:03.578Z,97030.73
2017-11-13T00:05:07.431Z,97029.00
2017-11-13T00:06:11.441Z,97029.84
2017-11-13T00:07:15.183Z,97031.59
2017-11-13T00:08:18.927Z,97023.38
2017-11-13T00:09:22.678Z,97029.40
2017-11-13T00:10:27.772Z,97029.83
2017-11-13T00:11:32.235Z,97013.45
2017-11-13T00:12:36.875Z,97041.47
2017-11-13T00:13:41.223Z,97014.77
2017-11-13T00:14:45.595Z,97024.66
2017-11-13T00:15:49.600Z,97038.06
2017-11-13T00:16:53.754Z,97011.70
2017-11-13T00:17:57.861Z,97043.20
2017-11-13T00:19:02.273Z,97045.80
2017-11-13T00:20:06.262Z,96866.62
2017-11-13T00:21:10.795Z,97037.52
2017-11-13T00:22:15.074Z,97039.26
2017-11-13T00:23:18.756Z,97030.26
2017-11-13T00:24:22.824Z,97040.98
2017-11-13T00:25:27.782Z,97041.44
2017-11-13T00:26:33.676Z,97054.80
2017-11-13T00:27:37.376Z,97047.03
2017-11-13T00:28:41.229Z,97042.73
2017-11-13T00:29:46.754Z,96993.22
2017-11-13T00:30:51.711Z,96916.55
2017-11-13T00:31:56.209Z,96942.81
2017-11-13T00:33:01.707Z,96984.16
2017-11-13T00:34:05.844Z,97056.11
2017-11-13T00:35:09.929Z,97062.98
2017-11-13T00:36:13.617Z,96959.59
2017-11-13T00:37:18.306Z,97041.03
2017-11-13T00:38:22.301Z,97070.78
2017-11-13T00:39:26.070Z,96914.85
2017-11-13T00:40:30.589Z,97041.94
2017-11-13T00:41:35.494Z,97049.66
2017-11-13T00:42:39.294Z,97078.97
2017-11-13T00:43:43.883Z,97066.44
2017-11-13T00:44:48.075Z,96901.91
2017-11-13T00:45:52.256Z,97064.75
2017-11-13T00:46:56.038Z,97069.89
2017-11-13T00:48:00.792Z,97084.58
2017-11-13T00:49:04.428Z,97071.23
2017-11-13T00:50:08.585Z,97093.20
2017-11-13T00:51:12.224Z,97086.69
2017-11-13T00:52:16.868Z,96963.47
2017-11-13T00:53:21.715Z,97029.88
2017-11-13T00:54:25.238Z,97085.47
2017-11-13T00:55:29.215Z,97111.34
2017-11-13T00:56:33.047Z,97091.06
2017-11-13T00:57:37.116Z,97091.50
2017-11-13T00:58:41.004Z,97083.73
2017-11-13T00:59:44.558Z,97090.63
2017-11-13T01:00:48.754Z,97080.30
2017-11-13T01:01:52.318Z,97082.90
2017-11-13T01:02:58.111Z,97082.00
2017-11-13T01:04:03.320Z,97093.16
2017-11-13T01:05:07.124Z,97095.73
2017-11-13T01:06:10.792Z,97096.18
2017-11-13T01:07:14.626Z,97106.53
2017-11-13T01:08:18.359Z,97098.75
2017-11-13T01:09:22.817Z,96959.59
2017-11-13T01:10:26.389Z,97106.53
2017-11-13T01:11:30.136Z,97099.66
2017-11-13T01:12:34.916Z,96955.30
2017-11-13T01:13:39.766Z,97101.38
2017-11-13T01:14:43.538Z,97100.13
2017-11-13T01:15:47.840Z,97091.51
2017-11-13T01:16:51.525Z,97104.84
2017-11-13T01:17:55.366Z,97119.06
2017-11-13T01:19:00.115Z,97119.50
2017-11-13T01:20:04.579Z,97111.76
2017-11-13T01:21:08.300Z,97122.09
2017-11-13T01:22:13.196Z,97087.59
2017-11-13T01:23:16.908Z,97110.47
2017-11-13T01:24:20.711Z,97100.07
2017-11-13T01:25:24.389Z,97129.83
2017-11-13T01:26:29.032Z,97113.86
2017-11-13T01:27:32.770Z,97131.12
2017-11-13T01:28:36.688Z,97126.80
2017-11-13T01:29:40.767Z,97131.96
2017-11-13T01:30:44.831Z,97131.55
2017-11-13T01:31:48.840Z,97136.28
2017-11-13T01:32:52.561Z,97134.98
2017-11-13T01:33:56.250Z,97138.92
2017-11-13T01:35:00.238Z,97129.00
2017-11-13T01:36:03.742Z,97097.53
2017-11-13T01:37:07.605Z,97138.05
2017-11-13T01:38:11.461Z,97146.23
2017-11-13T01:39:15.061Z,97134.59
2017-11-13T01:40:18.706Z,97148.41
2017-11-13T01:41:22.690Z,97146.22
2017-11-13T01:42:26.483Z,97148.84
2017-11-13T01:43:30.629Z,97144.55
2017-11-13T01:44:34.343Z,97150.57
2017-11-13T01:45:39.811Z,97142.39
2017-11-13T01:46:44.709Z,97151.88
2017-11-13T01:47:49.163Z,97146.70
2017-11-13T01:48:53.402Z,97158.78
2017-11-13T01:49:57.121Z,97147.11
2017-11-13T01:51:01.485Z,97060.01
2017-11-13T01:52:05.168Z,97153.13
2017-11-13T01:53:09.075Z,97157.00
2017-11-13T01:54:14.483Z,97163.09
2017-11-13T01:55:18.308Z,97163.50
2017-11-13T01:56:23.203Z,97139.78
2017-11-13T01:57:28.548Z,97167.38
2017-11-13T01:58:32.370Z,97170.84
2017-11-13T01:59:36.065Z,97168.69
2017-11-13T02:00:41.285Z,97160.91
2017-11-13T02:01:45.459Z,97150.98
2017-11-13T02:02:49.200Z,97172.13
2017-11-13T02:03:53.862Z,97173.87
2017-11-13T02:04:57.601Z,97176.45
2017-11-13T02:06:01.532Z,97173.45
2017-11-13T02:07:05.555Z,97176.02
2017-11-13T02:08:09.541Z,97166.11
2017-11-13T02:09:13.238Z,97167.84
2017-11-13T02:10:16.945Z,97171.28
2017-11-13T02:11:20.890Z,97167.41
2017-11-13T02:12:24.641Z,97179.05
2017-11-13T02:13:29.756Z,97177.77
2017-11-13T02:14:34.552Z,97183.78
2017-11-13T02:15:38.246Z,97189.83
2017-11-13T02:16:43.002Z,97163.94
2017-11-13T02:17:46.817Z,97180.34
2017-11-13T02:18:51.703Z,97191.56
2017-11-13T02:19:55.766Z,97190.70
2017-11-13T02:21:00.132Z,97196.73
2017-11-13T02:22:04.048Z,97060.04
2017-11-13T02:23:07.769Z,97200.61
2017-11-13T02:24:12.397Z,97206.67
2017-11-13T02:25:16.208Z,97204.92
2017-11-13T02:26:20.252Z,97206.66
2017-11-13T02:27:24.985Z,97195.44
2017-11-13T02:28:29.492Z,97209.69
2017-11-13T02:29:34.166Z,97213.58
2017-11-13T02:30:38.312Z,97217.90
2017-11-13T02:31:42.374Z,97217.47
2017-11-13T02:32:46.671Z,97220.91
2017-11-13T02:33:50.706Z,97207.09
2017-11-13T02:34:54.559Z,97216.17
2017-11-13T02:35:58.335Z,97222.62
2017-11-13T02:37:02.300Z,97220.03
2017-11-13T02:38:06.200Z,97214.84
2017-11-13T02:39:10.027Z,97211.83
2017-11-13T02:40:14.848Z,97210.56
2017-11-13T02:41:18.602Z,97205.36
2017-11-13T02:42:23.233Z,97225.20
2017-11-13T02:43:27.830Z,97220.03
2017-11-13T02:44:31.849Z,97198.06
2017-11-13T02:45:35.927Z,97221.36
2017-11-13T02:46:40.426Z,97120.38
2017-11-13T02:47:45.774Z,97224.79
2017-11-13T02:48:50.142Z,97221.77
2017-11-13T02:49:53.984Z,97223.06
2017-11-13T02:50:58.711Z,97230.81
2017-11-13T02:52:03.294Z,97187.25
2017-11-13T02:53:07.020Z,97227.80
2017-11-13T02:54:10.903Z,97224.78
2017-11-13T02:55:14.952Z,97240.34
2017-11-13T02:56:18.740Z,97245.08
2017-11-13T02:57:23.886Z,97107.45
2017-11-13T02:58:29.110Z,97250.70
2017-11-13T02:59:33.145Z,97251.98
2017-11-13T03:00:37.722Z,97251.98
2017-11-13T03:01:41.493Z,97253.28
2017-11-13T03:02:45.574Z,97230.83
2017-11-13T03:03:49.350Z,97260.61
2017-11-13T03:04:53.650Z,97249.39
2017-11-13T03:05:57.427Z,97258.48
2017-11-13T03:07:01.514Z,97260.61
2017-11-13T03:08:05.282Z,97258.05
2017-11-13T03:09:10.438Z,97263.66
2017-11-13T03:10:15.095Z,97269.25
2017-11-13T03:11:19.729Z,97115.64
2017-11-13T03:12:24.835Z,97194.61
2017-11-13T03:13:29.566Z,97270.98
2017-11-13T03:14:33.253Z,97266.66
2017-11-13T03:15:37.470Z,97154.41
2017-11-13T03:16:41.140Z,97283.06
2017-11-13T03:17:45.040Z,97285.22
2017-11-13T03:18:48.545Z,97282.63
2017-11-13T03:19:52.032Z,97264.06
2017-11-13T03:20:55.550Z,97285.22
2017-11-13T03:21:59.105Z,97298.59
2017-11-13T03:23:02.663Z,97298.17
2017-11-13T03:24:06.557Z,97305.08
2017-11-13T03:25:10.132Z,97312.84
2017-11-13T03:26:13.786Z,97286.50
2017-11-13T03:27:17.515Z,97304.63
2017-11-13T03:28:27.011Z,97305.50
2017-11-13T03:29:30.719Z,97297.74
2017-11-13T03:30:34.937Z,97246.80
2017-11-13T03:31:38.620Z,97307.66
2017-11-13T03:32:42.340Z,97309.83
2017-11-13T03:33:47.994Z,97279.19
2017-11-13T03:34:51.728Z,97286.52
2017-11-13T03:35:55.885Z,97314.59
2017-11-13T03:37:00.593Z,97318.91
2017-11-13T03:38:05.531Z,97169.12
2017-11-13T03:39:09.957Z,97317.19
2017-11-13T03:40:13.589Z,97317.63
2017-11-13T03:41:17.658Z,97318.47
2017-11-13T03:42:22.411Z,97322.38
2017-11-13T03:43:26.698Z,97321.08
2017-11-13T03:44:31.357Z,97299.91
2017-11-13T03:45:35.132Z,97311.98
2017-11-13T03:46:38.898Z,97318.05
2017-11-13T03:47:42.649Z,97326.68
2017-11-13T03:48:46.595Z,97238.60
2017-11-13T03:49:50.597Z,97325.39
2017-11-13T03:50:54.997Z,97325.81
2017-11-13T03:51:58.771Z,97329.25
2017-11-13T03:53:03.519Z,97320.19
2017-11-13T03:54:07.603Z,97332.29
2017-11-13T03:55:12.332Z,97323.19
2017-11-13T03:56:17.252Z,97308.47
2017-11-13T03:57:21.210Z,97282.16
2017-11-13T03:58:25.892Z,97347.39
2017-11-13T03:59:29.798Z,97327.95
2017-11-13T04:00:33.477Z,97137.53
2017-11-13T04:01:37.260Z,97336.17
2017-11-13T04:02:42.191Z,97306.38
2017-11-13T04:03:46.964Z,97339.17
2017-11-13T04:04:50.819Z,97344.34
2017-11-13T04:05:55.096Z,97338.73
2017-11-13T04:07:00.059Z,97352.12
2017-11-13T04:08:05.448Z,97314.12
2017-11-13T04:09:10.023Z,97337.44
2017-11-13T04:10:14.138Z,97350.83
2017-11-13T04:11:18.014Z,97345.66
2017-11-13T04:12:21.757Z,97347.34
2017-11-13T04:13:26.448Z,97336.53
2017-11-13T04:14:30.180Z,97360.74
2017-11-13T04:15:34.868Z,97368.95
2017-11-13T04:16:38.729Z,97365.09
2017-11-13T04:17:43.028Z,97373.28
2017-11-13T04:18:46.592Z,97381.07
2017-11-13T04:19:50.883Z,97388.86
2017-11-13T04:20:55.051Z,97288.17
2017-11-13T04:21:59.404Z,97363.78
2017-11-13T04:23:03.618Z,97354.30
2017-11-13T04:24:07.628Z,97349.53
2017-11-13T04:25:11.877Z,97372.84
2017-11-13T04:26:16.866Z,97360.24
2017-11-13T04:27:21.046Z,97348.18
2017-11-13T04:28:26.291Z,97259.16
2017-11-13T04:29:30.730Z,97368.89
2017-11-13T04:30:34.496Z,97363.24
2017-11-13T04:31:38.315Z,97365.88
2017-11-13T04:32:42.077Z,97365.86
2017-11-13T04:33:45.826Z,97318.73
2017-11-13T04:34:50.815Z,97372.33
2017-11-13T04:35:55.294Z,97376.66
2017-11-13T04:37:00.356Z,97263.43
2017-11-13T04:38:04.055Z,97367.17
2017-11-13T04:39:07.754Z,97395.25
2017-11-13T04:40:11.901Z,97393.11
2017-11-13T04:41:15.983Z,97394.00
2017-11-13T04:42:21.227Z,97400.45
2017-11-13T04:43:26.046Z,97394.44
2017-11-13T04:44:29.822Z,97395.72
2017-11-13T04:45:34.493Z,97396.16
2017-11-13T04:46:39.275Z,97380.16
2017-11-13T04:47:44.113Z,97400.88
2017-11-13T04:48:49.580Z,97408.66
2017-11-13T04:49:54.090Z,97307.50
2017-11-13T04:50:58.745Z,97358.56
2017-11-13T04:52:03.872Z,97406.51
2017-11-13T04:53:08.568Z,97209.51
2017-11-13T04:54:14.150Z,97401.77
2017-11-13T04:55:18.154Z,97375.41
2017-11-13T04:56:23.366Z,97296.27
2017-11-13T04:57:27.534Z,97276.77
2017-11-13T04:58:31.288Z,97409.05
2017-11-13T04:59:35.042Z,97406.88
2017-11-13T05:00:38.789Z,97273.27
2017-11-13T05:01:43.468Z,97398.66
2017-11-13T05:02:50.125Z,97415.94
2017-11-13T05:03:53.913Z,97421.61
2017-11-13T05:04:57.747Z,97422.47
2017-11-13T05:06:01.829Z,97412.54
2017-11-13T05:07:06.640Z,97411.27
2017-11-13T05:08:10.418Z,97425.45
2017-11-13T05:09:14.231Z,97411.16
2017-11-13T05:10:18.044Z,97418.50
2017-11-13T05:11:22.110Z,97418.08
2017-11-13T05:12:26.125Z,97420.66
2017-11-13T05:13:30.741Z,97432.31
2017-11-13T05:14:35.055Z,97437.97
2017-11-13T05:15:39.364Z,97262.05
2017-11-13T05:16:43.145Z,97433.22
2017-11-13T05:17:48.003Z,97434.95
2017-11-13T05:18:52.347Z,97438.83
2017-11-13T05:19:56.395Z,97443.08
2017-11-13T05:21:00.422Z,97447.02
2017-11-13T05:22:05.355Z,97444.45
2017-11-13T05:23:09.160Z,97446.58
2017-11-13T05:24:12.951Z,97447.89
2017-11-13T05:25:17.511Z,97277.98
2017-11-13T05:26:22.337Z,97457.78
2017-11-13T05:27:26.251Z,97450.47
2017-11-13T05:28:31.515Z,97405.55
2017-11-13T05:29:35.307Z,97455.25
2017-11-13T05:30:39.119Z,97459.59
2017-11-13T05:31:43.567Z,97445.71
2017-11-13T05:32:48.645Z,97452.63
2017-11-13T05:33:54.327Z,97459.09
2017-11-13T05:34:58.126Z,97443.98
2017-11-13T05:36:02.156Z,97459.14
2017-11-13T05:37:05.867Z,97476.00
2017-11-13T05:38:09.883Z,97466.93
2017-11-13T05:39:13.660Z,97469.51
2017-11-13T05:40:17.405Z,97471.64
2017-11-13T05:41:22.433Z,97463.44
2017-11-13T05:42:26.987Z,97477.24
2017-11-13T05:43:32.376Z,97421.42
2017-11-13T05:44:37.375Z,97483.26
2017-11-13T05:45:41.765Z,97478.92
2017-11-13T05:46:46.135Z,97486.73
2017-11-13T05:47:51.222Z,97482.42
2017-11-13T05:48:55.287Z,97481.55
2017-11-13T05:50:00.355Z,97494.48
2017-11-13T05:51:04.175Z,97469.89
2017-11-13T05:52:08.471Z,97486.37
2017-11-13T05:53:12.933Z,97485.97
2017-11-13T05:54:17.262Z,97483.69
2017-11-13T05:55:20.891Z,97380.55
2017-11-13T05:56:25.844Z,97489.61
2017-11-13T05:57:30.701Z,97468.39
2017-11-13T05:58:34.548Z,97483.67
2017-11-13T05:59:38.519Z,97496.62
2017-11-13T06:00:43.900Z,97500.52
2017-11-13T06:01:47.700Z,97482.81
2017-11-13T06:02:52.758Z,97478.92
2017-11-13T06:03:56.665Z,97503.16
2017-11-13T06:05:00.439Z,97493.21
2017-11-13T06:06:04.236Z,97499.45
2017-11-13T06:07:08.060Z,97509.55
2017-11-13T06:08:13.009Z,97513.02
2017-11-13T06:09:18.383Z,97512.16
2017-11-13T06:10:22.535Z,97523.05
2017-11-13T06:11:27.558Z,97525.58
2017-11-13T06:12:31.685Z,97349.97
2017-11-13T06:13:36.617Z,97528.20
2017-11-13T06:14:41.270Z,97528.55
2017-11-13T06:15:45.439Z,97522.53
2017-11-13T06:16:49.207Z,97522.13
2017-11-13T06:17:52.998Z,97535.62
2017-11-13T06:18:56.814Z,97535.65
2017-11-13T06:20:01.340Z,97527.91
2017-11-13T06:21:06.323Z,97535.19
2017-11-13T06:22:10.651Z,97532.11
2017-11-13T06:23:14.438Z,97538.22
2017-11-13T06:24:20.342Z,97528.64
2017-11-13T06:25:25.744Z,97524.70
2017-11-13T06:26:29.841Z,97400.35
2017-11-13T06:27:34.934Z,97531.14
2017-11-13T06:28:38.967Z,97550.19
2017-11-13T06:29:42.868Z,97528.59
2017-11-13T06:30:46.728Z,97489.66
2017-11-13T06:31:50.390Z,97551.14
2017-11-13T06:32:54.012Z,97555.03
2017-11-13T06:33:57.538Z,97541.18
2017-11-13T06:35:01.372Z,97435.98
2017-11-13T06:36:05.106Z,97540.37
2017-11-13T06:37:08.825Z,97558.52
2017-11-13T06:38:12.481Z,97562.88
2017-11-13T06:39:16.136Z,97555.13
2017-11-13T06:40:20.478Z,97542.16
2017-11-13T06:41:24.569Z,97562.52
2017-11-13T06:42:28.500Z,97563.34
2017-11-13T06:43:32.346Z,97564.19
2017-11-13T06:44:36.173Z,97565.06
2017-11-13T06:45:39.987Z,97556.40
2017-11-13T06:46:43.844Z,97581.05
2017-11-13T06:47:47.945Z,97561.09
2017-11-13T06:48:51.857Z,97574.11
2017-11-13T06:49:55.670Z,97576.29
2017-11-13T06:50:59.332Z,97549.90
2017-11-13T06:52:03.130Z,97570.22
2017-11-13T06:53:06.906Z,97537.81
2017-11-13T06:54:11.029Z,97542.56
2017-11-13T06:55:14.876Z,97559.91
2017-11-13T06:56:18.683Z,97550.83
2017-11-13T06:57:22.503Z,97578.13
2017-11-13T06:58:26.306Z,97569.81
2017-11-13T06:59:30.221Z,97582.38
2017-11-13T07:00:34.396Z,97587.08
2017-11-13T07:01:38.171Z,97584.97
2017-11-13T07:02:42.044Z,97500.98
2017-11-13T07:03:45.861Z,97577.99
2017-11-13T07:04:49.635Z,97592.73
2017-11-13T07:05:53.454Z,97563.27
2017-11-13T07:06:57.737Z,97591.31
2017-11-13T07:08:01.618Z,97596.11
2017-11-13T07:09:06.385Z,97590.06
2017-11-13T07:10:10.157Z,97595.16
2017-11-13T07:11:13.945Z,97579.09
2017-11-13T07:12:17.732Z,97584.02
2017-11-13T07:13:21.810Z,97597.82
2017-11-13T07:14:25.622Z,97606.03
2017-11-13T07:15:30.515Z,97609.46
2017-11-13T07:16:34.512Z,97615.13
2017-11-13T07:17:38.668Z,97592.63
2017-11-13T07:18:42.609Z,97587.00
2017-11-13T07:19:46.797Z,97619.91
2017-11-13T07:20:50.550Z,97620.82
2017-11-13T07:21:54.320Z,97627.73
2017-11-13T07:22:58.041Z,97625.52
2017-11-13T07:24:01.871Z,97628.48
2017-11-13T07:25:06.660Z,97627.58
2017-11-13T07:26:10.832Z,97625.93
2017-11-13T07:27:14.804Z,97585.69
2017-11-13T07:28:18.574Z,97612.11
2017-11-13T07:29:22.465Z,97627.64
2017-11-13T07:30:26.240Z,97623.36
2017-11-13T07:31:30.072Z,97620.75
2017-11-13T07:32:33.971Z,97638.42
2017-11-13T07:33:37.594Z,97641.49
2017-11-13T07:34:41.341Z,97632.91
2017-11-13T07:35:44.943Z,97634.65
2017-11-13T07:36:48.691Z,97637.28
2017-11-13T07:37:52.392Z,97635.08
2017-11-13T07:38:56.152Z,97638.08
2017-11-13T07:39:59.907Z,97550.16
2017-11-13T07:41:03.657Z,97610.80
2017-11-13T07:42:07.465Z,97625.05
2017-11-13T07:43:11.158Z,97640.18
2017-11-13T07:44:15.163Z,97631.14
2017-11-13T07:45:18.982Z,97620.82
2017-11-13T07:46:22.771Z,97635.97
2017-11-13T07:47:26.574Z,97630.27
2017-11-13T07:48:30.474Z,97631.59
2017-11-13T07:49:35.076Z,97625.02
2017-11-13T07:50:39.164Z,97644.52
2017-11-13T07:51:43.013Z,97637.67
2017-11-13T07:52:46.898Z,97620.75
2017-11-13T07:53:50.678Z,97640.69
2017-11-13T07:54:54.552Z,97647.64
2017-11-13T07:55:58.416Z,97645.05
2017-11-13T07:57:02.704Z,97646.37
2017-11-13T07:58:06.492Z,97598.77
2017-11-13T07:59:10.285Z,97652.02
2017-11-13T08:00:14.185Z,97636.41
2017-11-13T08:01:18.090Z,97658.52
2017-11-13T08:02:21.798Z,97639.93
2017-11-13T08:03:25.778Z,97637.73
2017-11-13T08:04:29.487Z,97659.39
2017-11-13T08:05:33.153Z,97659.42
2017-11-13T08:06:36.847Z,97633.39
2017-11-13T08:07:40.661Z,97655.84
2017-11-13T08:08:44.331Z,97651.54
2017-11-13T08:09:48.451Z,97662.41
2017-11-13T08:10:52.145Z,97639.48
2017-11-13T08:11:55.827Z,97670.64
2017-11-13T08:12:59.987Z,97672.80
2017-11-13T08:14:03.713Z,97667.07
2017-11-13T08:15:07.425Z,97664.08
2017-11-13T08:16:11.569Z,97668.85
2017-11-13T08:17:15.290Z,97680.11
2017-11-13T08:18:19.034Z,97663.25
2017-11-13T08:19:22.967Z,97676.70
2017-11-13T08:20:26.813Z,97674.14
2017-11-13T08:21:30.602Z,97675.81
2017-11-13T08:22:35.867Z,97677.16
2017-11-13T08:23:39.691Z,97680.59
2017-11-13T08:24:43.552Z,97636.83
2017-11-13T08:25:47.365Z,97620.42
2017-11-13T08:26:51.069Z,97686.23
2017-11-13T08:27:55.027Z,97667.20
2017-11-13T08:28:59.263Z,97694.92
2017-11-13T08:30:03.224Z,97694.52
2017-11-13T08:31:07.545Z,97689.28
2017-11-13T08:32:11.335Z,97691.05
2017-11-13T08:33:15.685Z,97690.61
2017-11-13T08:34:19.479Z,97691.92
2017-11-13T08:35:23.724Z,97662.95
2017-11-13T08:36:27.562Z,97700.66
2017-11-13T08:37:31.368Z,97708.89
2017-11-13T08:38:35.255Z,97695.49
2017-11-13T08:39:39.094Z,97709.77
2017-11-13T08:40:42.973Z,97710.64
2017-11-13T08:41:47.081Z,97714.95
2017-11-13T08:42:50.936Z,97709.76
2017-11-13T08:43:54.731Z,97675.11
2017-11-13T08:44:58.379Z,97677.25
2017-11-13T08:46:02.039Z,97719.67
2017-11-13T08:47:05.756Z,97736.14
2017-11-13T08:48:09.866Z,97693.73
2017-11-13T08:49:13.547Z,97724.47
2017-11-13T08:50:17.211Z,97712.36
2017-11-13T08:51:20.883Z,97740.52
2017-11-13T08:52:24.657Z,97741.35
2017-11-13T08:53:28.519Z,97719.69
2017-11-13T08:54:33.017Z,97740.94
2017-11-13T08:55:37.819Z,97735.31
2017-11-13T08:56:41.656Z,97738.78
2017-11-13T08:57:47.747Z,97748.31
2017-11-13T08:58:51.664Z,97749.17
2017-11-13T08:59:55.489Z,97747.89
2017-11-13T09:00:59.797Z,97748.80
2017-11-13T09:02:03.699Z,97752.27
2017-11-13T09:03:07.659Z,97757.44
2017-11-13T09:04:11.613Z,97756.59
2017-11-13T09:05:15.490Z,97764.80
2017-11-13T09:06:19.314Z,97770.42
2017-11-13T09:07:23.460Z,97747.90
2017-11-13T09:08:27.271Z,97762.64
2017-11-13T09:09:31.055Z,97708.91
2017-11-13T09:10:34.873Z,97770.44
2017-11-13T09:11:39.205Z,97765.63
2017-11-13T09:12:43.026Z,97779.97
2017-11-13T09:13:47.137Z,97766.53
2017-11-13T09:14:51.266Z,97745.70
2017-11-13T09:15:55.155Z,97751.82
2017-11-13T09:16:59.080Z,97766.55
2017-11-13T09:18:02.989Z,97766.54
2017-11-13T09:19:06.773Z,97743.59
2017-11-13T09:20:10.852Z,97762.64
2017-11-13T09:21:14.702Z,97744.44
2017-11-13T09:22:18.593Z,97721.95
2017-11-13T09:23:22.456Z,97752.25
2017-11-13T09:24:26.219Z,97760.91
2017-11-13T09:25:30.476Z,97762.66
2017-11-13T09:26:34.655Z,97777.81
2017-11-13T09:27:38.611Z,97744.86
2017-11-13T09:28:42.535Z,97746.58
2017-11-13T09:29:46.394Z,97735.77
2017-11-13T09:30:50.263Z,97759.59
2017-11-13T09:31:54.410Z,97769.58
2017-11-13T09:32:58.469Z,97770.86
2017-11-13T09:34:02.385Z,97743.59
2017-11-13T09:35:06.268Z,97780.39
2017-11-13T09:36:10.055Z,97779.52
2017-11-13T09:37:13.853Z,97760.89
2017-11-13T09:38:17.656Z,97792.55
2017-11-13T09:39:21.829Z,97771.72
2017-11-13T09:40:25.627Z,97791.23
2017-11-13T09:41:29.420Z,97773.47
2017-11-13T09:42:33.196Z,97799.02
2017-11-13T09:43:36.931Z,97782.13
2017-11-13T09:44:40.817Z,97799.46
2017-11-13T09:45:45.031Z,97798.16
2017-11-13T09:46:48.937Z,97791.19
2017-11-13T09:47:52.775Z,97785.16
2017-11-13T09:48:56.591Z,97795.97
2017-11-13T09:50:00.402Z,97799.78
2017-11-13T09:51:04.364Z,97802.75
2017-11-13T09:52:08.542Z,97802.38
2017-11-13T09:53:12.419Z,97802.83
2017-11-13T09:54:16.279Z,97784.67
2017-11-13T09:55:20.196Z,97791.16
2017-11-13T09:56:24.252Z,97802.88
2017-11-13T09:57:28.086Z,97804.21
2017-11-13T09:58:32.377Z,97805.50
2017-11-13T09:59:36.411Z,97812.44
2017-11-13T10:00:40.510Z,97805.95
2017-11-13T10:01:44.414Z,97805.03
2017-11-13T10:02:48.241Z,97812.33
2017-11-13T10:03:52.047Z,97773.39
2017-11-13T10:04:56.196Z,97804.61
2017-11-13T10:06:00.040Z,97797.27
2017-11-13T10:07:03.861Z,97782.98
2017-11-13T10:08:07.701Z,97766.92
2017-11-13T10:09:11.838Z,97805.92
2017-11-13T10:10:15.685Z,97780.75
2017-11-13T10:11:19.854Z,97768.16
2017-11-13T10:12:23.638Z,97796.68
2017-11-13T10:13:27.683Z,97820.09
2017-11-13T10:14:31.618Z,97794.47
2017-11-13T10:15:35.427Z,97814.58
2017-11-13T10:16:39.318Z,97825.45
2017-11-13T10:17:43.589Z,97740.94
2017-11-13T10:18:47.590Z,97739.67
2017-11-13T10:19:51.522Z,97821.94
2017-11-13T10:20:55.372Z,97819.30
2017-11-13T10:21:59.274Z,97807.59
2017-11-13T10:23:03.173Z,97811.80
2017-11-13T10:24:07.510Z,97798.69
2017-11-13T10:25:12.094Z,97817.04
2017-11-13T10:26:17.197Z,97829.81
2017-11-13T10:27:21.134Z,97828.14
2017-11-13T10:28:25.030Z,97830.27
2017-11-13T10:29:29.436Z,97830.80
2017-11-13T10:30:33.609Z,97840.11
2017-11-13T10:31:37.558Z,97841.34
2017-11-13T10:32:41.558Z,97849.23
2017-11-13T10:33:45.595Z,97845.82
2017-11-13T10:34:49.589Z,97813.30
2017-11-13T10:35:53.454Z,97852.33
2017-11-13T10:36:57.684Z,97846.67
2017-11-13T10:38:02.079Z,97813.76
2017-11-13T10:39:06.091Z,97866.17
2017-11-13T10:40:09.959Z,97719.77
2017-11-13T10:41:15.204Z,97860.92
2017-11-13T10:42:19.087Z,97855.24
2017-11-13T10:43:23.202Z,97852.16
2017-11-13T10:44:27.048Z,97848.28
2017-11-13T10:45:30.806Z,97848.28
2017-11-13T10:46:34.549Z,97855.16
2017-11-13T10:47:38.540Z,97854.23
2017-11-13T10:48:42.286Z,97840.30
2017-11-13T10:49:46.658Z,97856.96
2017-11-13T10:50:50.458Z,97857.91
2017-11-13T10:51:54.348Z,97866.96
2017-11-13T10:52:58.346Z,97861.28
2017-11-13T10:54:02.343Z,97873.51
2017-11-13T10:55:06.323Z,97859.61
2017-11-13T10:56:10.755Z,97869.50
2017-11-13T10:57:14.643Z,97869.02
2017-11-13T10:58:19.179Z,97868.73
2017-11-13T10:59:23.103Z,97871.80
2017-11-13T11:00:27.047Z,97864.03
2017-11-13T11:01:30.944Z,97861.02
2017-11-13T11:02:36.227Z,97867.51
2017-11-13T11:03:40.127Z,97872.27
2017-11-13T11:04:44.120Z,97877.02
2017-11-13T11:05:47.990Z,97804.67
2017-11-13T11:06:51.881Z,97875.31
2017-11-13T11:07:55.723Z,97868.36
2017-11-13T11:08:59.887Z,97868.34
2017-11-13T11:10:03.809Z,97872.63
2017-11-13T11:11:08.018Z,97878.73
2017-11-13T11:12:11.932Z,97873.54
2017-11-13T11:13:15.809Z,97881.38
2017-11-13T11:14:19.872Z,97849.29
2017-11-13T11:15:24.138Z,97853.63
2017-11-13T11:16:28.073Z,97833.25
2017-11-13T11:17:32.244Z,97889.16
2017-11-13T11:18:36.874Z,97887.39
2017-11-13T11:19:40.814Z,97885.98
2017-11-13T11:20:45.057Z,97889.98
2017-11-13T11:21:49.312Z,97846.03
2017-11-13T11:22:53.215Z,97888.58
2017-11-13T11:23:57.309Z,97888.53
2017-11-13T11:25:01.209Z,97858.52
2017-11-13T11:26:05.272Z,97893.65
2017-11-13T11:27:09.306Z,97897.54
2017-11-13T11:28:13.718Z,97894.95
2017-11-13T11:29:17.698Z,97904.91
2017-11-13T11:30:21.589Z,97890.19
2017-11-13T11:31:25.487Z,97885.43
2017-11-13T11:32:29.341Z,97866.42
2017-11-13T11:33:33.233Z,97907.25
2017-11-13T11:34:37.477Z,97908.62
2017-11-13T11:35:41.569Z,97888.70
2017-11-13T11:36:45.533Z,97913.37
2017-11-13T11:37:49.577Z,97914.27
2017-11-13T11:38:53.451Z,97913.83
2017-11-13T11:39:57.451Z,97899.50
2017-11-13T11:41:01.766Z,97847.84
2017-11-13T11:42:05.726Z,97912.95
2017-11-13T11:43:09.918Z,97914.56
2017-11-13T11:44:14.846Z,97878.05
2017-11-13T11:45:18.705Z,97874.14
2017-11-13T11:46:22.603Z,97917.00
2017-11-13T11:47:26.855Z,97873.59
2017-11-13T11:48:30.783Z,97880.58
2017-11-13T11:49:34.667Z,97899.27
2017-11-13T11:50:38.588Z,97913.65
2017-11-13T11:51:42.500Z,97914.91
2017-11-13T11:52:46.433Z,97909.43
2017-11-13T11:53:50.690Z,97918.20
2017-11-13T11:54:54.833Z,97857.88
2017-11-13T11:55:58.721Z,97908.47
2017-11-13T11:57:02.651Z,97901.39
2017-11-13T11:58:06.566Z,97899.57
2017-11-13T11:59:10.467Z,97901.09
2017-11-13T12:00:14.823Z,97902.30
2017-11-13T12:01:18.680Z,97895.02
2017-11-13T12:02:22.440Z,97899.77
2017-11-13T12:03:26.153Z,97894.92
2017-11-13T12:04:29.890Z,97894.56
2017-11-13T12:05:34.304Z,97891.77
2017-11-13T12:06:38.750Z,97870.72
2017-11-13T12:07:42.629Z,97899.51
2017-11-13T12:08:47.134Z,97838.88
2017-11-13T12:09:50.974Z,97896.41
2017-11-13T12:10:54.942Z,97739.88
2017-11-13T12:11:58.961Z,97897.50
2017-11-13T12:13:03.766Z,97909.72
2017-11-13T12:14:07.789Z,97914.73
2017-11-13T12:15:12.244Z,97918.34
2017-11-13T12:16:17.251Z,97914.31
2017-11-13T12:17:21.980Z,97912.30
2017-11-13T12:18:26.411Z,97917.64
2017-11-13T12:19:30.492Z,97917.89
2017-11-13T12:20:34.287Z,97923.08
2017-11-13T12:21:38.185Z,97930.98
2017-11-13T12:22:42.024Z,97928.00
2017-11-13T12:23:45.882Z,97875.45
2017-11-13T12:24:52.475Z,97931.02
2017-11-13T12:25:56.672Z,97922.22
2017-11-13T12:27:00.564Z,97920.48
2017-11-13T12:28:04.451Z,97934.50
2017-11-13T12:29:08.249Z,97916.60
2017-11-13T12:30:12.036Z,97923.22
2017-11-13T12:31:15.891Z,97913.87
2017-11-13T12:32:19.963Z,97922.41
2017-11-13T12:33:24.113Z,97933.80